createdAt,value
2019-05-14T00:00:09.247Z,4.9313
2019-05-14T00:00:17.460Z,3.9624
2019-05-14T00:00:27.769Z,3.8976
2019-05-14T00:00:38.255Z,3.9797
2019-05-14T00:00:51.982Z,4.1030
2019-05-14T00:00:58.277Z,3.5963
2019-05-14T00:01:11.730Z,3.7295
2019-05-14T00:01:18.255Z,3.3385
2019-05-14T00:01:31.302Z,3.1833
2019-05-14T00:01:38.234Z,3.6216
2019-05-14T00:01:48.453Z,4.1998
2019-05-14T00:01:58.272Z,3.5949
2019-05-14T00:02:11.960Z,3.6231
2019-05-14T00:02:18.245Z,4.0134
2019-05-14T00:02:29.251Z,3.9376
2019-05-14T00:02:38.226Z,3.9558
2019-05-14T00:02:51.976Z,4.3073
2019-05-14T00:03:02.145Z,4.5101
2019-05-14T00:03:11.198Z,3.6055
2019-05-14T00:03:21.928Z,3.1687
2019-05-14T00:03:31.140Z,3.3395
2019-05-14T00:03:41.424Z,3.4693
2019-05-14T00:03:51.452Z,3.1349
2019-05-14T00:04:02.121Z,3.0911
2019-05-14T00:04:11.759Z,3.5776
2019-05-14T00:04:22.028Z,3.8463
2019-05-14T00:04:28.246Z,4.1435
2019-05-14T00:04:42.265Z,4.1304
2019-05-14T00:04:48.244Z,4.0926
2019-05-14T00:05:01.692Z,3.7656
2019-05-14T00:05:08.244Z,4.0946
2019-05-14T00:05:21.460Z,4.1162
2019-05-14T00:05:28.265Z,3.0635
2019-05-14T00:05:39.263Z,2.1907
2019-05-14T00:05:48.251Z,2.8043
2019-05-14T00:05:59.237Z,3.7086
2019-05-14T00:06:08.275Z,3.6522
2019-05-14T00:06:19.266Z,2.5943
2019-05-14T00:06:28.239Z,2.7236
2019-05-14T00:06:41.578Z,3.0610
2019-05-14T00:06:48.235Z,3.0168
2019-05-14T00:07:01.023Z,2.7699
2019-05-14T00:07:08.264Z,2.5698
2019-05-14T00:07:19.244Z,1.7823
2019-05-14T00:07:28.709Z,2.3940
2019-05-14T00:07:41.422Z,2.1695
2019-05-14T00:07:48.254Z,2.8375
2019-05-14T00:07:59.250Z,3.9074
2019-05-14T00:08:08.235Z,2.9713
2019-05-14T00:08:19.249Z,3.0277
2019-05-14T00:08:28.235Z,3.3850
2019-05-14T00:08:41.631Z,3.5275
2019-05-14T00:08:48.245Z,2.8665
2019-05-14T00:09:01.386Z,3.5301
2019-05-14T00:09:08.255Z,4.7867
2019-05-14T00:09:21.398Z,5.4455
2019-05-14T00:09:28.302Z,5.6853
2019-05-14T00:09:41.383Z,5.0111
2019-05-14T00:09:48.255Z,5.0670
2019-05-14T00:10:01.089Z,5.5210
2019-05-14T00:10:07.465Z,4.5962
2019-05-14T00:10:18.227Z,4.6996
2019-05-14T00:10:28.230Z,5.4319
2019-05-14T00:10:38.063Z,4.7980
2019-05-14T00:10:49.282Z,4.0148
2019-05-14T00:10:58.452Z,3.3255
2019-05-14T00:11:08.225Z,3.4461
2019-05-14T00:11:19.248Z,3.2672
2019-05-14T00:11:28.248Z,3.1385
2019-05-14T00:11:39.253Z,3.2240
2019-05-14T00:11:51.289Z,3.9559
2019-05-14T00:12:02.937Z,3.9363
2019-05-14T00:12:11.359Z,3.6220
2019-05-14T00:12:19.231Z,3.4392
2019-05-14T00:12:31.488Z,2.8312
2019-05-14T00:12:38.248Z,2.7376
2019-05-14T00:12:51.242Z,3.4301
2019-05-14T00:12:58.148Z,3.5058
2019-05-14T00:13:12.057Z,3.3808
2019-05-14T00:13:18.245Z,3.2423
2019-05-14T00:13:29.253Z,3.5850
2019-05-14T00:13:38.236Z,3.7403
2019-05-14T00:13:49.234Z,4.3868
2019-05-14T00:13:58.234Z,4.2720
2019-05-14T00:14:11.441Z,4.1699
2019-05-14T00:14:18.257Z,4.6764
2019-05-14T00:14:37.234Z,4.6936
2019-05-14T00:14:40.366Z,4.4968
2019-05-14T00:14:48.231Z,3.5173
2019-05-14T00:14:58.253Z,3.9223
2019-05-14T00:15:11.069Z,3.4976
2019-05-14T00:15:18.230Z,3.3918
2019-05-14T00:15:29.230Z,3.4513
2019-05-14T00:15:38.255Z,3.4827
2019-05-14T00:15:49.235Z,3.4945
2019-05-14T00:15:58.245Z,3.9781
2019-05-14T00:16:09.230Z,4.3272
2019-05-14T00:16:18.247Z,3.7561
2019-05-14T00:16:28.067Z,3.0704
2019-05-14T00:16:38.240Z,3.3874
2019-05-14T00:16:51.188Z,4.1059
2019-05-14T00:16:59.309Z,5.4504
2019-05-14T00:17:11.200Z,6.4503
2019-05-14T00:17:21.509Z,6.8008
2019-05-14T00:17:29.246Z,6.0749
2019-05-14T00:17:38.237Z,5.4131
2019-05-14T00:17:49.240Z,5.7358
2019-05-14T00:17:58.226Z,5.6115
2019-05-14T00:18:11.622Z,6.2734
2019-05-14T00:18:22.231Z,5.3217
2019-05-14T00:18:31.301Z,5.4961
2019-05-14T00:18:42.012Z,5.4292
2019-05-14T00:18:48.250Z,5.3250
2019-05-14T00:19:01.645Z,5.1836
2019-05-14T00:19:08.236Z,5.0081
2019-05-14T00:19:21.470Z,4.9566
2019-05-14T00:19:28.242Z,4.8927
2019-05-14T00:19:41.375Z,5.0685
2019-05-14T00:19:48.245Z,5.4062
2019-05-14T00:20:07.220Z,4.1893
2019-05-14T00:20:10.081Z,3.2628
2019-05-14T00:20:19.247Z,3.0663
2019-05-14T00:20:28.241Z,3.6553
2019-05-14T00:20:39.247Z,4.5841
2019-05-14T00:20:48.237Z,5.5881
2019-05-14T00:21:01.455Z,5.1946
2019-05-14T00:21:08.275Z,5.1537
2019-05-14T00:21:21.136Z,4.2867
2019-05-14T00:21:28.236Z,4.4603
2019-05-14T00:21:39.239Z,4.0517
2019-05-14T00:21:48.250Z,4.2902
2019-05-14T00:21:59.270Z,4.0354
2019-05-14T00:22:08.250Z,4.0633
2019-05-14T00:22:19.245Z,4.8350
2019-05-14T00:22:28.243Z,4.1162
2019-05-14T00:22:38.695Z,4.0883
2019-05-14T00:22:48.246Z,4.9065
2019-05-14T00:23:01.258Z,4.3886
2019-05-14T00:23:08.253Z,4.1202
2019-05-14T00:23:21.487Z,4.6885
2019-05-14T00:23:28.270Z,5.3060
2019-05-14T00:23:39.252Z,5.3677
2019-05-14T00:23:48.241Z,5.6679
2019-05-14T00:23:59.245Z,5.0541
2019-05-14T00:24:08.259Z,4.6884
2019-05-14T00:24:21.580Z,5.0253
2019-05-14T00:24:32.330Z,5.2669
2019-05-14T00:24:41.270Z,4.9586
2019-05-14T00:24:51.948Z,4.8973
2019-05-14T00:24:58.257Z,4.1151
2019-05-14T00:25:11.700Z,4.1823
2019-05-14T00:25:18.284Z,4.6413
2019-05-14T00:25:31.330Z,3.8334
2019-05-14T00:25:38.252Z,3.6990
2019-05-14T00:25:49.254Z,4.0902
2019-05-14T00:25:58.262Z,3.9096
2019-05-14T00:26:09.242Z,3.7028
2019-05-14T00:26:18.241Z,4.0050
2019-05-14T00:26:29.256Z,3.8587
2019-05-14T00:26:38.257Z,4.1957
2019-05-14T00:26:51.564Z,4.5203
2019-05-14T00:26:58.259Z,3.8515
2019-05-14T00:27:11.358Z,4.0309
2019-05-14T00:27:21.827Z,4.4296
2019-05-14T00:27:31.064Z,4.8307
2019-05-14T00:27:38.246Z,5.2609
2019-05-14T00:27:49.226Z,4.0605
2019-05-14T00:27:58.254Z,4.1791
2019-05-14T00:28:09.246Z,3.9590
2019-05-14T00:28:18.226Z,3.6236
2019-05-14T00:28:31.543Z,4.3162
2019-05-14T00:28:38.227Z,5.0428
2019-05-14T00:28:51.037Z,5.1680
2019-05-14T00:28:58.236Z,5.0725
2019-05-14T00:29:08.105Z,5.1261
2019-05-14T00:29:17.467Z,4.6331
2019-05-14T00:29:29.241Z,4.6709
2019-05-14T00:29:41.450Z,4.3100
2019-05-14T00:29:51.588Z,3.9181
2019-05-14T00:29:58.248Z,4.3616
2019-05-14T00:30:11.328Z,3.6531
2019-05-14T00:30:18.245Z,3.7791
2019-05-14T00:30:31.632Z,3.8414
2019-05-14T00:30:38.214Z,3.7531
2019-05-14T00:30:49.257Z,5.3579
2019-05-14T00:31:02.922Z,5.6778
2019-05-14T00:31:09.232Z,4.6331
2019-05-14T00:31:21.347Z,4.2532
2019-05-14T00:31:28.239Z,4.5939
2019-05-14T00:31:42.530Z,3.5855
2019-05-14T00:31:48.270Z,3.4879
2019-05-14T00:31:59.258Z,3.0444
2019-05-14T00:32:08.250Z,3.1045
2019-05-14T00:32:21.868Z,3.4268
2019-05-14T00:32:28.235Z,3.9871
2019-05-14T00:32:41.442Z,4.1351
2019-05-14T00:32:48.257Z,5.2594
2019-05-14T00:33:01.210Z,5.0633
2019-05-14T00:33:12.237Z,4.8195
2019-05-14T00:33:19.245Z,4.3610
2019-05-14T00:33:28.259Z,4.9328
2019-05-14T00:33:39.255Z,4.5238
2019-05-14T00:33:48.379Z,3.6188
2019-05-14T00:34:01.621Z,3.5052
2019-05-14T00:34:11.741Z,4.3137
2019-05-14T00:34:21.347Z,4.5569
2019-05-14T00:34:28.237Z,4.2360
2019-05-14T00:34:39.234Z,4.1054
2019-05-14T00:34:48.254Z,4.1346
2019-05-14T00:34:59.250Z,4.2592
2019-05-14T00:35:08.243Z,5.2053
2019-05-14T00:35:21.371Z,5.6003
2019-05-14T00:35:29.326Z,4.6126
2019-05-14T00:35:41.203Z,3.5975
2019-05-14T00:35:51.293Z,3.9816
2019-05-14T00:35:59.242Z,4.4317
2019-05-14T00:36:08.247Z,3.8061
2019-05-14T00:36:21.574Z,3.8074
2019-05-14T00:36:28.268Z,5.6243
2019-05-14T00:36:41.747Z,5.1732
2019-05-14T00:36:52.418Z,4.3715
2019-05-14T00:37:01.403Z,4.7235
2019-05-14T00:37:11.494Z,4.9652
2019-05-14T00:37:21.629Z,4.7106
2019-05-14T00:37:32.173Z,4.4596
2019-05-14T00:37:41.495Z,4.7179
2019-05-14T00:37:49.230Z,4.1270
2019-05-14T00:37:58.244Z,3.4563
2019-05-14T00:38:08.777Z,2.8838
2019-05-14T00:38:18.236Z,5.5808
2019-05-14T00:38:31.371Z,7.0586
2019-05-14T00:38:38.248Z,6.9534
2019-05-14T00:38:51.184Z,5.7871
2019-05-14T00:38:57.896Z,4.4022
2019-05-14T00:39:11.210Z,5.0042
2019-05-14T00:39:18.230Z,5.1025
2019-05-14T00:39:29.257Z,5.1900
2019-05-14T00:39:38.246Z,5.0307
2019-05-14T00:39:49.267Z,5.6756
2019-05-14T00:39:58.247Z,6.2485
2019-05-14T00:40:11.580Z,6.0448
2019-05-14T00:40:18.258Z,5.6695
2019-05-14T00:40:31.238Z,5.3750
2019-05-14T00:40:38.268Z,5.1272
2019-05-14T00:40:51.191Z,4.4545
2019-05-14T00:40:58.228Z,4.7185
2019-05-14T00:41:11.148Z,4.5115
2019-05-14T00:41:18.261Z,4.7366
2019-05-14T00:41:31.144Z,3.7883
2019-05-14T00:41:42.720Z,4.0013
2019-05-14T00:41:51.059Z,4.3286
2019-05-14T00:41:58.261Z,4.2134
2019-05-14T00:42:09.244Z,4.8603
2019-05-14T00:42:18.260Z,4.9401
2019-05-14T00:42:29.241Z,5.3069
2019-05-14T00:42:41.134Z,4.8655
2019-05-14T00:42:49.283Z,4.4623
2019-05-14T00:42:58.263Z,5.0188
2019-05-14T00:43:11.270Z,4.4354
2019-05-14T00:43:21.523Z,4.2592
2019-05-14T00:43:29.217Z,5.1331
2019-05-14T00:43:41.567Z,6.1547
2019-05-14T00:43:51.203Z,5.5430
2019-05-14T00:44:01.960Z,5.7820
2019-05-14T00:44:08.255Z,6.5855
2019-05-14T00:44:21.540Z,6.1840
2019-05-14T00:44:28.249Z,5.3838
2019-05-14T00:44:53.513Z,3.8503
2019-05-14T00:44:54.617Z,3.9901
2019-05-14T00:44:58.263Z,4.5523
2019-05-14T00:45:08.229Z,4.8642
2019-05-14T00:45:19.239Z,4.5513
2019-05-14T00:45:28.252Z,4.7226
2019-05-14T00:45:41.609Z,4.7436
2019-05-14T00:45:48.273Z,4.0383
2019-05-14T00:46:01.509Z,3.6355
2019-05-14T00:46:08.254Z,3.9350
2019-05-14T00:46:21.157Z,3.5142
2019-05-14T00:46:28.224Z,2.5525
2019-05-14T00:46:41.069Z,3.3021
2019-05-14T00:46:48.267Z,3.9678
2019-05-14T00:47:03.745Z,5.7521
2019-05-14T00:47:08.226Z,6.0820
2019-05-14T00:47:21.576Z,6.7614
2019-05-14T00:47:28.243Z,5.8374
2019-05-14T00:47:41.571Z,4.6293
2019-05-14T00:47:48.241Z,4.7128
2019-05-14T00:48:01.312Z,4.5288
2019-05-14T00:48:08.254Z,4.5575
2019-05-14T00:48:18.180Z,4.9583
2019-05-14T00:48:31.772Z,4.4368
2019-05-14T00:48:39.269Z,4.3745
2019-05-14T00:48:48.242Z,4.6310
2019-05-14T00:48:58.451Z,5.1697
2019-05-14T00:49:08.251Z,5.0976
2019-05-14T00:49:21.124Z,5.2775
2019-05-14T00:49:31.678Z,5.1963
2019-05-14T00:49:42.258Z,5.8485
2019-05-14T00:49:53.821Z,4.2641
2019-05-14T00:50:02.718Z,4.7787
2019-05-14T00:50:11.253Z,5.1563
2019-05-14T00:50:18.259Z,4.8763
2019-05-14T00:50:31.676Z,4.7606
2019-05-14T00:50:38.230Z,4.3382
2019-05-14T00:50:51.435Z,5.1535
2019-05-14T00:50:58.248Z,5.4723
2019-05-14T00:51:13.735Z,4.0249
2019-05-14T00:51:18.227Z,3.2901
2019-05-14T00:51:29.259Z,4.0156
2019-05-14T00:51:38.258Z,5.8163
2019-05-14T00:51:49.250Z,6.2396
2019-05-14T00:51:58.256Z,5.6941
2019-05-14T00:52:11.502Z,5.4425
2019-05-14T00:52:18.231Z,4.8288
2019-05-14T00:52:31.367Z,5.2425
2019-05-14T00:52:38.276Z,5.6802
2019-05-14T00:52:51.491Z,5.8984
2019-05-14T00:52:58.243Z,4.6598
2019-05-14T00:53:11.676Z,4.5324
2019-05-14T00:53:18.231Z,4.4581
2019-05-14T00:53:31.808Z,4.1343
2019-05-14T00:53:38.250Z,4.1123
2019-05-14T00:53:53.705Z,3.5020
2019-05-14T00:53:58.237Z,3.4979
2019-05-14T00:54:11.135Z,3.4521
2019-05-14T00:54:18.246Z,3.1766
2019-05-14T00:54:29.233Z,3.2439
2019-05-14T00:54:38.242Z,3.4917
2019-05-14T00:54:49.254Z,3.4684
2019-05-14T00:54:58.266Z,3.8609
2019-05-14T00:55:08.203Z,4.9581
2019-05-14T00:55:18.249Z,5.2193
2019-05-14T00:55:28.745Z,3.9415
2019-05-14T00:55:42.098Z,2.9959
2019-05-14T00:55:51.346Z,2.7362
2019-05-14T00:55:58.237Z,3.1554
2019-05-14T00:56:08.414Z,3.8342
2019-05-14T00:56:19.032Z,4.2498
2019-05-14T00:56:31.973Z,4.8979
2019-05-14T00:56:38.253Z,5.4018
2019-05-14T00:56:51.983Z,4.4829
2019-05-14T00:57:01.462Z,4.3466
2019-05-14T00:57:11.579Z,3.4121
2019-05-14T00:57:21.114Z,3.1489
2019-05-14T00:57:28.251Z,3.3480
2019-05-14T00:57:42.583Z,3.9134
2019-05-14T00:57:48.247Z,4.9902
2019-05-14T00:57:59.249Z,5.2282
2019-05-14T00:58:12.277Z,5.2195
2019-05-14T00:58:21.583Z,4.6134
2019-05-14T00:58:28.232Z,4.0963
2019-05-14T00:58:41.342Z,3.9842
2019-05-14T00:58:48.230Z,3.7647
2019-05-14T00:59:01.251Z,3.1965
2019-05-14T00:59:08.232Z,3.3504
2019-05-14T00:59:21.512Z,3.8565
2019-05-14T00:59:28.244Z,3.9634
2019-05-14T00:59:41.437Z,4.2442
2019-05-14T00:59:48.238Z,3.9247
2019-05-14T01:00:01.092Z,3.5431
2019-05-14T01:00:08.244Z,3.1914
2019-05-14T01:00:19.246Z,4.2205
2019-05-14T01:00:28.250Z,4.2618
2019-05-14T01:00:39.237Z,3.9685
2019-05-14T01:00:48.257Z,4.1875
2019-05-14T01:01:01.338Z,4.3896
2019-05-14T01:01:08.249Z,4.1553
2019-05-14T01:01:21.329Z,4.2698
2019-05-14T01:01:28.245Z,4.0011
2019-05-14T01:01:37.712Z,4.0412
2019-05-14T01:01:51.445Z,3.3200
2019-05-14T01:01:59.250Z,4.0149
2019-05-14T01:02:08.223Z,4.0917
2019-05-14T01:02:21.624Z,4.0133
2019-05-14T01:02:28.262Z,4.5813
2019-05-14T01:02:38.443Z,5.2643
2019-05-14T01:02:48.239Z,5.0644
2019-05-14T01:02:59.259Z,4.8564
2019-05-14T01:03:08.249Z,4.3377
2019-05-14T01:03:21.575Z,4.4904
2019-05-14T01:03:32.309Z,5.5597
2019-05-14T01:03:41.355Z,5.2867
2019-05-14T01:03:52.101Z,4.8777
2019-05-14T01:03:58.241Z,3.9422
2019-05-14T01:04:11.739Z,4.1219
2019-05-14T01:04:18.263Z,4.0522
2019-05-14T01:04:31.207Z,5.0116
2019-05-14T01:04:38.232Z,4.7243
2019-05-14T01:04:51.384Z,5.5409
2019-05-14T01:04:58.244Z,5.4395
2019-05-14T01:05:09.238Z,4.8570
2019-05-14T01:05:18.224Z,5.4420
2019-05-14T01:05:29.253Z,5.2421
2019-05-14T01:05:38.273Z,4.5294
2019-05-14T01:05:49.270Z,4.4064
2019-05-14T01:05:58.231Z,5.2555
2019-05-14T01:06:11.294Z,4.8222
2019-05-14T01:06:18.261Z,4.0533
2019-05-14T01:06:31.522Z,3.7130
2019-05-14T01:06:38.223Z,4.9175
2019-05-14T01:06:51.141Z,5.2312
2019-05-14T01:06:58.241Z,5.9984
2019-05-14T01:07:11.672Z,5.4072
2019-05-14T01:07:18.258Z,5.1252
2019-05-14T01:07:33.787Z,3.1519
2019-05-14T01:07:38.246Z,2.6491
2019-05-14T01:07:51.210Z,3.5238
2019-05-14T01:07:58.261Z,3.1279
2019-05-14T01:08:09.247Z,3.8215
2019-05-14T01:08:18.249Z,4.1834
2019-05-14T01:08:29.237Z,3.8528
2019-05-14T01:08:38.258Z,4.1362
2019-05-14T01:08:49.241Z,4.5037
2019-05-14T01:08:58.250Z,5.3091
2019-05-14T01:09:11.291Z,5.4160
2019-05-14T01:09:22.817Z,4.7926
2019-05-14T01:09:31.464Z,4.7092
2019-05-14T01:09:38.248Z,4.4612
2019-05-14T01:09:48.188Z,5.7614
2019-05-14T01:09:58.244Z,5.7359
2019-05-14T01:10:08.728Z,5.7282
2019-05-14T01:10:18.293Z,5.8029
2019-05-14T01:10:31.343Z,5.4809
2019-05-14T01:10:41.779Z,4.9768
2019-05-14T01:10:51.158Z,5.0978
2019-05-14T01:11:01.588Z,5.1010
2019-05-14T01:11:08.254Z,4.6263
2019-05-14T01:11:21.956Z,4.3167
2019-05-14T01:11:28.249Z,4.6533
2019-05-14T01:11:39.242Z,4.9898
2019-05-14T01:11:48.237Z,3.9278
2019-05-14T01:12:01.627Z,3.8808
2019-05-14T01:12:08.254Z,4.9728
2019-05-14T01:12:21.267Z,5.3479
2019-05-14T01:12:28.255Z,5.4377
2019-05-14T01:12:41.357Z,4.7462
2019-05-14T01:12:48.245Z,4.0800
2019-05-14T01:13:01.179Z,3.4270
2019-05-14T01:13:08.247Z,3.7802
2019-05-14T01:13:19.246Z,3.1492
2019-05-14T01:13:31.297Z,2.7913
2019-05-14T01:13:41.494Z,4.6790
2019-05-14T01:13:48.220Z,7.0511
2019-05-14T01:14:01.497Z,7.1338
2019-05-14T01:14:08.235Z,6.5802
2019-05-14T01:14:21.123Z,5.6029
2019-05-14T01:14:28.267Z,5.0789
2019-05-14T01:14:39.252Z,5.1174
2019-05-14T01:14:51.485Z,4.3103
2019-05-14T01:15:07.786Z,3.7210
2019-05-14T01:15:13.286Z,4.2671
2019-05-14T01:15:21.506Z,5.3637
2019-05-14T01:15:28.255Z,5.5143
2019-05-14T01:15:41.487Z,5.2906
2019-05-14T01:15:52.116Z,4.6400
2019-05-14T01:16:01.351Z,4.9182
2019-05-14T01:16:12.066Z,5.2008
2019-05-14T01:16:19.216Z,5.3113
2019-05-14T01:16:31.794Z,4.6163
2019-05-14T01:16:38.251Z,4.0638
2019-05-14T01:16:51.350Z,4.2442
2019-05-14T01:16:58.232Z,3.9345
2019-05-14T01:17:11.193Z,3.3724
2019-05-14T01:17:22.785Z,3.6793
2019-05-14T01:17:31.170Z,4.1669
2019-05-14T01:17:38.246Z,5.0771
2019-05-14T01:17:51.381Z,5.2876
2019-05-14T01:17:58.226Z,4.5313
2019-05-14T01:18:11.302Z,5.5942
2019-05-14T01:18:18.249Z,6.2601
2019-05-14T01:18:28.130Z,6.2134
2019-05-14T01:18:42.782Z,5.3374
2019-05-14T01:18:52.809Z,5.7518
2019-05-14T01:18:58.245Z,6.3025
2019-05-14T01:19:13.775Z,4.6680
2019-05-14T01:19:18.255Z,4.0488
2019-05-14T01:19:31.477Z,3.7709
2019-05-14T01:19:38.246Z,3.6847
2019-05-14T01:19:51.271Z,4.8422
2019-05-14T01:19:58.233Z,5.0934
2019-05-14T01:20:09.246Z,4.9756
2019-05-14T01:20:18.244Z,5.3603
2019-05-14T01:20:29.234Z,5.2406
2019-05-14T01:20:38.255Z,4.5744
2019-05-14T01:20:51.692Z,4.6316
2019-05-14T01:20:58.238Z,4.7017
2019-05-14T01:21:11.500Z,5.2858
2019-05-14T01:21:18.279Z,4.8903
2019-05-14T01:21:28.473Z,4.7574
2019-05-14T01:21:39.149Z,4.8980
2019-05-14T01:21:51.055Z,4.4601
2019-05-14T01:21:58.219Z,4.0454
2019-05-14T01:22:12.232Z,4.6111
2019-05-14T01:22:21.286Z,4.3312
2019-05-14T01:22:31.592Z,4.0554
2019-05-14T01:22:42.228Z,3.9230
2019-05-14T01:22:48.237Z,4.4571
2019-05-14T01:23:02.196Z,4.4111
2019-05-14T01:23:08.251Z,3.9904
2019-05-14T01:23:23.747Z,6.8657
2019-05-14T01:23:28.231Z,6.3810
2019-05-14T01:23:41.362Z,4.9918
2019-05-14T01:23:48.238Z,4.7263
2019-05-14T01:24:02.034Z,5.1886
2019-05-14T01:24:08.236Z,4.8877
2019-05-14T01:24:21.447Z,4.4191
2019-05-14T01:24:28.258Z,4.9606
2019-05-14T01:24:41.448Z,4.7743
2019-05-14T01:24:48.245Z,4.2540
2019-05-14T01:25:01.456Z,3.7388
2019-05-14T01:25:08.262Z,3.5234
2019-05-14T01:25:19.267Z,3.7442
2019-05-14T01:25:28.251Z,3.4797
2019-05-14T01:25:39.234Z,3.8275
2019-05-14T01:25:48.265Z,3.7500
2019-05-14T01:25:59.240Z,5.4729
2019-05-14T01:26:08.265Z,4.9431
2019-05-14T01:26:21.597Z,4.5428
2019-05-14T01:26:28.226Z,3.9731
2019-05-14T01:26:41.476Z,4.5522
2019-05-14T01:26:48.267Z,6.1997
2019-05-14T01:26:58.820Z,7.5671
2019-05-14T01:27:08.240Z,7.2614
2019-05-14T01:27:18.141Z,6.6627
2019-05-14T01:27:28.263Z,4.9427
2019-05-14T01:27:41.367Z,4.4245
2019-05-14T01:27:48.237Z,3.5532
2019-05-14T01:27:59.233Z,2.8612
2019-05-14T01:28:11.211Z,3.3741
2019-05-14T01:28:21.436Z,3.2006
2019-05-14T01:28:32.173Z,3.9345
2019-05-14T01:28:41.554Z,4.4151
2019-05-14T01:28:51.377Z,3.9878
2019-05-14T01:29:01.253Z,4.5399
2019-05-14T01:29:11.972Z,4.2877
2019-05-14T01:29:18.247Z,3.8426
2019-05-14T01:29:31.658Z,4.1637
2019-05-14T01:29:38.247Z,4.0010
2019-05-14T01:29:51.204Z,4.3336
2019-05-14T01:29:58.249Z,4.3625
2019-05-14T01:30:09.251Z,3.3821
2019-05-14T01:30:18.249Z,4.0570
2019-05-14T01:30:29.237Z,5.2287
2019-05-14T01:30:38.250Z,5.5405
2019-05-14T01:30:51.608Z,5.0666
2019-05-14T01:30:58.236Z,5.7004
2019-05-14T01:31:11.192Z,6.3165
2019-05-14T01:31:18.267Z,6.1588
2019-05-14T01:31:31.284Z,5.9419
2019-05-14T01:31:38.362Z,5.3401
2019-05-14T01:31:49.233Z,5.0888
2019-05-14T01:31:57.679Z,4.2272
2019-05-14T01:32:11.468Z,4.2182
2019-05-14T01:32:18.263Z,3.8241
2019-05-14T01:32:31.373Z,3.7559
2019-05-14T01:32:38.238Z,4.2004
2019-05-14T01:32:51.156Z,4.6580
2019-05-14T01:32:57.479Z,4.8321
2019-05-14T01:33:09.252Z,4.4351
2019-05-14T01:33:18.241Z,4.3546
2019-05-14T01:33:28.339Z,5.1872
2019-05-14T01:33:38.252Z,5.2005
2019-05-14T01:33:51.400Z,5.0283
2019-05-14T01:34:02.248Z,4.4550
2019-05-14T01:34:11.201Z,4.1697
2019-05-14T01:34:21.603Z,4.0009
2019-05-14T01:34:32.176Z,3.7396
2019-05-14T01:34:41.978Z,4.0018
2019-05-14T01:34:48.233Z,4.1632
2019-05-14T01:35:01.394Z,4.1236
2019-05-14T01:35:08.237Z,5.2192
2019-05-14T01:35:19.232Z,5.4643
2019-05-14T01:35:28.244Z,6.0725
2019-05-14T01:35:42.046Z,5.2209
2019-05-14T01:35:48.227Z,4.6429
2019-05-14T01:35:59.262Z,4.6398
2019-05-14T01:36:08.234Z,4.1474
2019-05-14T01:36:21.342Z,4.9374
2019-05-14T01:36:28.259Z,4.2706
2019-05-14T01:36:41.732Z,3.0636
2019-05-14T01:36:48.283Z,3.0825
2019-05-14T01:36:59.258Z,3.8450
2019-05-14T01:37:11.661Z,4.5130
2019-05-14T01:37:21.705Z,4.1548
2019-05-14T01:37:32.737Z,4.5910
2019-05-14T01:37:41.816Z,5.1326
2019-05-14T01:37:48.232Z,5.9051
2019-05-14T01:37:58.661Z,5.0492
2019-05-14T01:38:08.237Z,5.0017
2019-05-14T01:38:19.247Z,5.4738
2019-05-14T01:38:27.481Z,5.1365
2019-05-14T01:38:37.787Z,4.8961
2019-05-14T01:38:48.229Z,5.1854
2019-05-14T01:39:01.612Z,4.9442
2019-05-14T01:39:08.238Z,4.5247
2019-05-14T01:39:21.214Z,3.3950
2019-05-14T01:39:28.239Z,3.3821
2019-05-14T01:39:41.765Z,3.9534
2019-05-14T01:39:52.023Z,5.0925
2019-05-14T01:40:01.202Z,4.9797
2019-05-14T01:40:11.422Z,4.6037
2019-05-14T01:40:18.251Z,4.1961
2019-05-14T01:40:31.558Z,5.2315
2019-05-14T01:40:38.243Z,5.7180
2019-05-14T01:40:49.249Z,5.3221
2019-05-14T01:40:58.235Z,5.0470
2019-05-14T01:41:11.690Z,4.5296
2019-05-14T01:41:18.241Z,4.9052
2019-05-14T01:41:31.544Z,4.9099
2019-05-14T01:41:38.254Z,5.3760
2019-05-14T01:41:51.480Z,4.6540
2019-05-14T01:41:58.253Z,4.3754
2019-05-14T01:42:09.259Z,4.7847
2019-05-14T01:42:18.249Z,5.6522
2019-05-14T01:42:27.741Z,6.0959
2019-05-14T01:42:38.248Z,5.4941
2019-05-14T01:42:52.047Z,5.9224
2019-05-14T01:43:02.638Z,5.1530
2019-05-14T01:43:11.395Z,4.9202
2019-05-14T01:43:18.255Z,4.3188
2019-05-14T01:43:31.290Z,4.4428
2019-05-14T01:43:38.239Z,4.6014
2019-05-14T01:43:51.248Z,4.6746
2019-05-14T01:43:58.264Z,4.8949
2019-05-14T01:44:09.246Z,4.4276
2019-05-14T01:44:21.210Z,4.2264
2019-05-14T01:44:28.488Z,4.2541
2019-05-14T01:44:41.089Z,4.3898
2019-05-14T01:44:51.685Z,3.8543
2019-05-14T01:44:58.242Z,5.1913
2019-05-14T01:45:23.533Z,5.0445
2019-05-14T01:45:25.077Z,5.0069
2019-05-14T01:45:31.457Z,4.8531
2019-05-14T01:45:41.733Z,5.0048
2019-05-14T01:45:49.239Z,5.8529
2019-05-14T01:46:02.002Z,5.6925
2019-05-14T01:46:09.257Z,5.6918
2019-05-14T01:46:21.024Z,6.9710
2019-05-14T01:46:28.233Z,6.8284
2019-05-14T01:46:42.043Z,6.3533
2019-05-14T01:46:48.236Z,6.8745
2019-05-14T01:46:59.243Z,6.1365
2019-05-14T01:47:08.248Z,4.8882
2019-05-14T01:47:21.302Z,4.1775
2019-05-14T01:47:28.258Z,3.8102
2019-05-14T01:47:41.372Z,4.3324
2019-05-14T01:47:48.248Z,4.6557
2019-05-14T01:48:01.233Z,5.8165
2019-05-14T01:48:08.252Z,5.3199
2019-05-14T01:48:19.254Z,4.7373
2019-05-14T01:48:28.244Z,4.1722
2019-05-14T01:48:41.616Z,5.8724
2019-05-14T01:48:48.248Z,6.3927
2019-05-14T01:49:01.377Z,5.7083
2019-05-14T01:49:12.721Z,4.6764
2019-05-14T01:49:19.242Z,4.3186
2019-05-14T01:49:28.236Z,5.1427
2019-05-14T01:49:39.221Z,7.1496
2019-05-14T01:49:48.237Z,5.8813
2019-05-14T01:49:58.739Z,5.1610
2019-05-14T01:50:08.231Z,5.0795
2019-05-14T01:50:21.445Z,6.3199
2019-05-14T01:50:28.245Z,6.3839
2019-05-14T01:50:41.251Z,5.7793
2019-05-14T01:50:47.486Z,6.3266
2019-05-14T01:51:01.316Z,6.7611
2019-05-14T01:51:08.246Z,4.9147
2019-05-14T01:51:18.151Z,4.1854
2019-05-14T01:51:28.256Z,4.4975
2019-05-14T01:51:39.226Z,3.9012
2019-05-14T01:51:51.052Z,4.1086
2019-05-14T01:52:01.580Z,4.3690
2019-05-14T01:52:11.271Z,4.9814
2019-05-14T01:52:21.790Z,4.7347
2019-05-14T01:52:31.788Z,3.3595
2019-05-14T01:52:38.256Z,3.4350
2019-05-14T01:52:52.034Z,4.3171
2019-05-14T01:52:58.250Z,3.5381
2019-05-14T01:53:11.411Z,3.4289
2019-05-14T01:53:18.236Z,4.0656
2019-05-14T01:53:31.256Z,3.9920
2019-05-14T01:53:38.252Z,4.0781
2019-05-14T01:53:49.261Z,4.6926
2019-05-14T01:53:58.231Z,6.0018
2019-05-14T01:54:09.231Z,5.5285
2019-05-14T01:54:18.255Z,5.0894
2019-05-14T01:54:31.524Z,5.4486
2019-05-14T01:54:38.246Z,4.9807
2019-05-14T01:54:51.329Z,4.4655
2019-05-14T01:54:58.266Z,4.2632
2019-05-14T01:55:11.216Z,4.3353
2019-05-14T01:55:18.247Z,3.8117
2019-05-14T01:55:29.258Z,5.0022
2019-05-14T01:55:38.260Z,5.6829
2019-05-14T01:55:49.254Z,5.0495
2019-05-14T01:55:58.224Z,5.3036
2019-05-14T01:56:09.244Z,4.9447
2019-05-14T01:56:18.766Z,5.1621
2019-05-14T01:56:33.847Z,4.7053
2019-05-14T01:56:38.239Z,4.4917
2019-05-14T01:56:51.312Z,4.3114
2019-05-14T01:57:01.927Z,3.8863
2019-05-14T01:57:11.306Z,4.2827
2019-05-14T01:57:18.226Z,4.0966
2019-05-14T01:57:31.213Z,5.2070
2019-05-14T01:57:38.249Z,4.9895
2019-05-14T01:57:51.573Z,4.2565
2019-05-14T01:58:02.352Z,4.3946
2019-05-14T01:58:11.970Z,5.1312
2019-05-14T01:58:22.046Z,4.9663
2019-05-14T01:58:31.131Z,4.8873
2019-05-14T01:58:41.765Z,4.4236
2019-05-14T01:58:48.259Z,3.6479
2019-05-14T01:59:01.637Z,3.8105
2019-05-14T01:59:08.241Z,4.0560
2019-05-14T01:59:21.347Z,4.2797
2019-05-14T01:59:28.244Z,4.5729
2019-05-14T01:59:39.245Z,4.6170
2019-05-14T01:59:48.249Z,5.2186
2019-05-14T01:59:59.227Z,4.8001
2019-05-14T02:00:08.241Z,5.0983
2019-05-14T02:00:19.235Z,5.0675
2019-05-14T02:00:28.301Z,4.3273
2019-05-14T02:00:41.473Z,4.2342
2019-05-14T02:00:48.262Z,4.9374
2019-05-14T02:01:01.706Z,6.1741
2019-05-14T02:01:08.254Z,5.8148
2019-05-14T02:01:21.692Z,6.3426
2019-05-14T02:01:28.250Z,5.4825
2019-05-14T02:01:41.494Z,5.0216
2019-05-14T02:01:48.256Z,5.2286
2019-05-14T02:01:59.266Z,4.9474
2019-05-14T02:02:08.242Z,4.6890
2019-05-14T02:02:19.237Z,4.5660
2019-05-14T02:02:28.246Z,5.1125
2019-05-14T02:02:41.573Z,5.6359
2019-05-14T02:02:48.242Z,5.6164
2019-05-14T02:03:01.578Z,4.7484
2019-05-14T02:03:08.246Z,5.2185
2019-05-14T02:03:21.358Z,5.7184
2019-05-14T02:03:28.246Z,4.9377
2019-05-14T02:03:41.133Z,5.3991
2019-05-14T02:03:48.237Z,4.9431
2019-05-14T02:03:59.267Z,4.4815
2019-05-14T02:04:08.275Z,4.0648
2019-05-14T02:04:19.237Z,3.8039
2019-05-14T02:04:28.256Z,3.5311
2019-05-14T02:04:42.948Z,4.4261
2019-05-14T02:04:51.304Z,5.5969